createdAt,value
2022-09-20T00:01:32.699Z,99866.03
2022-09-20T00:04:02.355Z,99866.50
2022-09-20T00:06:31.536Z,99867.69
2022-09-20T00:08:59.741Z,99869.44
2022-09-20T00:11:29.211Z,99868.38
2022-09-20T00:13:57.648Z,99863.37
2022-09-20T00:16:30.237Z,99861.22
2022-09-20T00:19:04.424Z,99866.38
2022-09-20T00:21:32.996Z,99869.44
2022-09-20T00:24:00.120Z,99868.72
2022-09-20T00:26:27.712Z,99865.59
2022-09-20T00:28:55.286Z,99879.00
2022-09-20T00:31:23.204Z,99877.22
2022-09-20T00:34:36.559Z,99882.47
2022-09-20T00:37:15.369Z,99869.31
2022-09-20T00:39:41.936Z,99866.56
2022-09-20T00:42:14.179Z,99866.22
2022-09-20T00:44:42.781Z,99873.81
2022-09-20T00:47:41.985Z,99866.44
2022-09-20T00:50:38.184Z,99873.38
2022-09-20T00:53:36.983Z,99872.19
2022-09-20T00:56:11.472Z,99873.09
2022-09-20T00:58:49.755Z,99879.47
2022-09-20T01:01:17.224Z,99877.31
2022-09-20T01:03:44.071Z,99876.53
2022-09-20T01:06:15.559Z,99884.25
2022-09-20T01:12:22.759Z,99875.28
2022-09-20T01:14:51.254Z,99884.53
2022-09-20T01:17:19.870Z,99891.59
2022-09-20T01:20:12.578Z,99898.53
2022-09-20T01:22:51.709Z,99892.81
2022-09-20T01:25:51.313Z,99894.69
2022-09-20T01:28:18.096Z,99900.16
2022-09-20T01:31:03.640Z,99900.38
2022-09-20T01:33:53.729Z,99904.56
2022-09-20T01:36:57.891Z,99903.94
2022-09-20T01:39:29.439Z,99899.72
2022-09-20T01:42:14.429Z,99911.44
2022-09-20T01:45:00.148Z,99908.03
2022-09-20T01:47:48.542Z,99895.53
2022-09-20T01:50:35.041Z,99891.72
2022-09-20T01:53:04.466Z,99908.63
2022-09-20T01:55:49.449Z,99906.22
2022-09-20T01:58:46.945Z,99908.69
2022-09-20T02:01:38.756Z,99910.63
2022-09-20T02:04:14.265Z,99911.56
2022-09-20T02:06:53.943Z,99906.69
2022-09-20T02:09:29.530Z,99898.25
2022-09-20T02:12:17.404Z,99902.19
2022-09-20T02:15:10.171Z,99888.25
2022-09-20T02:18:26.214Z,99889.66
2022-09-20T02:21:35.031Z,99885.44
2022-09-20T02:24:17.452Z,99886.31
2022-09-20T02:26:58.807Z,99882.31
2022-09-20T02:29:52.907Z,99884.31
2022-09-20T02:32:54.745Z,99883.09
2022-09-20T02:36:01.928Z,99890.69
2022-09-20T02:38:59.105Z,99893.78
2022-09-20T02:41:28.320Z,99893.44
2022-09-20T02:44:04.172Z,99896.66
2022-09-20T02:46:41.197Z,99902.72
2022-09-20T02:49:47.528Z,99895.94
2022-09-20T02:53:01.215Z,99894.19
2022-09-20T02:55:52.656Z,99890.25
2022-09-20T02:58:40.261Z,99897.19
2022-09-20T03:01:25.077Z,99890.59
2022-09-20T03:04:00.637Z,99893.03
2022-09-20T03:06:39.376Z,99898.94
2022-09-20T03:09:05.832Z,99896.53
2022-09-20T03:12:09.563Z,99898.00
2022-09-20T03:14:37.589Z,99899.44
2022-09-20T03:17:27.381Z,99905.19
2022-09-20T03:20:29.036Z,99917.94
2022-09-20T03:23:19.993Z,99916.78
2022-09-20T03:26:50.281Z,99911.09
2022-09-20T03:29:43.009Z,99909.91
2022-09-20T03:32:28.319Z,99905.50
2022-09-20T03:34:57.936Z,99905.50
2022-09-20T03:37:45.240Z,99899.56
2022-09-20T03:40:24.701Z,99895.84
2022-09-20T03:42:58.575Z,99895.06
2022-09-20T03:45:56.211Z,99904.69
2022-09-20T03:48:51.996Z,99897.00
2022-09-20T03:51:34.467Z,99907.22
2022-09-20T03:54:38.773Z,99899.75
2022-09-20T03:57:19.421Z,99907.59
2022-09-20T04:00:35.842Z,99909.22
2022-09-20T04:03:43.107Z,99899.03
2022-09-20T04:06:31.649Z,99911.16
2022-09-20T04:09:47.671Z,99906.50
2022-09-20T04:12:30.840Z,99903.75
2022-09-20T04:14:57.378Z,99898.28
2022-09-20T04:17:49.243Z,99907.81
2022-09-20T04:20:55.984Z,99906.91
2022-09-20T04:23:33.573Z,99907.94
2022-09-20T04:26:02.309Z,99909.59
2022-09-20T04:28:56.971Z,99910.66
2022-09-20T04:31:37.378Z,99910.75
2022-09-20T04:37:39.717Z,99926.72
2022-09-20T04:40:31.045Z,99934.75
2022-09-20T04:43:17.381Z,99934.50
2022-09-20T04:46:13.730Z,99931.34
2022-09-20T04:48:58.754Z,99931.75
2022-09-20T04:52:04.008Z,99933.94
2022-09-20T04:54:53.176Z,99931.94
2022-09-20T04:57:34.429Z,99921.69
2022-09-20T05:00:16.950Z,99923.63
2022-09-20T05:03:02.120Z,99935.31
2022-09-20T05:05:49.715Z,99933.22
2022-09-20T05:08:58.803Z,99926.81
2022-09-20T05:12:08.743Z,99924.47
2022-09-20T05:15:13.154Z,99928.19
2022-09-20T05:17:45.831Z,99936.41
2022-09-20T05:20:27.691Z,99936.81
2022-09-20T05:23:12.934Z,99930.72
2022-09-20T05:25:45.043Z,99923.16
2022-09-20T05:28:30.301Z,99936.94
2022-09-20T05:31:26.143Z,99937.00
2022-09-20T05:34:02.905Z,99940.25
2022-09-20T05:36:50.642Z,99938.31
2022-09-20T05:39:32.507Z,99946.44
2022-09-20T05:42:14.572Z,99949.34
2022-09-20T05:45:23.469Z,99951.91
2022-09-20T05:48:24.649Z,99954.28
2022-09-20T05:51:06.515Z,99952.16
2022-09-20T05:53:41.810Z,99954.34
2022-09-20T05:56:34.892Z,99958.91
2022-09-20T05:59:21.617Z,99965.13
2022-09-20T06:02:27.357Z,99982.31
2022-09-20T06:05:12.623Z,99978.09
2022-09-20T06:07:54.104Z,99979.63
2022-09-20T06:10:26.112Z,99985.47
2022-09-20T06:13:09.737Z,99993.87
2022-09-20T06:15:44.891Z,99995.19
2022-09-20T06:18:52.790Z,99996.62
2022-09-20T06:22:03.944Z,99990.00
2022-09-20T06:24:47.586Z,100002.84
2022-09-20T06:27:32.573Z,100011.66
2022-09-20T06:30:05.987Z,100000.78
2022-09-20T06:32:34.731Z,100006.41
2022-09-20T06:35:02.920Z,100004.09
2022-09-20T06:38:09.652Z,100002.59
2022-09-20T06:41:04.244Z,100004.19
2022-09-20T06:43:31.619Z,100006.63
2022-09-20T06:45:58.794Z,100004.53
2022-09-20T06:48:25.421Z,100003.94
2022-09-20T06:50:52.627Z,99997.25
2022-09-20T06:53:26.788Z,99997.94
2022-09-20T06:55:53.589Z,99999.28
2022-09-20T06:58:20.116Z,100003.06
2022-09-20T07:00:46.934Z,99997.44
2022-09-20T07:03:13.612Z,100001.16
2022-09-20T07:05:40.205Z,100003.97
2022-09-20T07:08:06.843Z,100009.91
2022-09-20T07:10:33.780Z,100013.28
2022-09-20T07:13:02.000Z,100014.88
2022-09-20T07:15:30.954Z,100003.84
2022-09-20T07:17:57.495Z,100020.13
2022-09-20T07:20:24.084Z,100020.63
2022-09-20T07:22:51.638Z,100019.53
2022-09-20T07:25:18.452Z,100024.16
2022-09-20T07:27:46.478Z,100019.16
2022-09-20T07:30:17.431Z,100025.06
2022-09-20T07:32:44.077Z,100027.47
2022-09-20T07:35:11.960Z,100028.94
2022-09-20T07:37:41.404Z,100028.44
2022-09-20T07:40:10.535Z,100018.50
2022-09-20T07:42:37.308Z,100027.81
2022-09-20T07:45:04.744Z,100026.59
2022-09-20T07:47:35.463Z,100033.28
2022-09-20T07:50:02.865Z,100036.97
2022-09-20T07:52:35.609Z,100029.56
2022-09-20T07:55:02.186Z,100025.81
2022-09-20T07:57:28.756Z,100034.13
2022-09-20T07:59:55.294Z,100031.91
2022-09-20T08:02:21.842Z,100032.72
2022-09-20T08:04:49.910Z,100025.28
2022-09-20T08:07:47.672Z,100018.94
2022-09-20T08:10:36.018Z,100027.41
2022-09-20T08:16:07.556Z,100029.66
2022-09-20T08:18:35.176Z,100030.72
2022-09-20T08:21:06.712Z,100028.28
2022-09-20T08:23:41.000Z,100034.41
2022-09-20T08:26:26.954Z,100024.69
2022-09-20T08:28:58.958Z,100028.13
2022-09-20T08:31:34.520Z,100032.34
2022-09-20T08:34:03.769Z,100020.81
2022-09-20T08:36:36.056Z,100017.13
2022-09-20T08:42:43.758Z,100022.81
2022-09-20T08:45:41.963Z,100024.25
2022-09-20T08:48:16.380Z,100028.75
2022-09-20T08:50:43.828Z,100034.81
2022-09-20T08:53:14.859Z,100037.28
2022-09-20T08:55:42.931Z,100037.69
2022-09-20T08:58:12.035Z,100040.84
2022-09-20T09:00:47.002Z,100040.44
2022-09-20T09:03:16.946Z,100044.13
2022-09-20T09:05:47.775Z,100043.00
2022-09-20T09:08:18.709Z,100045.84
2022-09-20T09:10:54.206Z,100048.97
2022-09-20T09:13:54.549Z,100046.59
2022-09-20T09:16:35.245Z,100034.88
2022-09-20T09:20:00.347Z,100038.22
2022-09-20T09:22:42.983Z,100041.75
2022-09-20T09:25:18.567Z,100048.53
2022-09-20T09:27:57.624Z,100033.22
2022-09-20T09:30:31.713Z,100032.28
2022-09-20T09:33:19.995Z,100038.50
2022-09-20T09:36:25.708Z,100038.59
2022-09-20T09:39:29.148Z,100031.78
2022-09-20T09:41:57.312Z,100042.25
2022-09-20T09:44:35.507Z,100035.47
2022-09-20T09:47:02.343Z,100037.69
2022-09-20T09:49:36.594Z,100037.44
2022-09-20T09:52:27.915Z,100037.75
2022-09-20T09:55:02.082Z,100025.84
2022-09-20T09:58:14.560Z,100027.41
2022-09-20T10:00:46.601Z,100018.53
2022-09-20T10:03:25.438Z,100030.66
2022-09-20T10:06:16.713Z,100024.00
2022-09-20T10:09:04.428Z,100022.69
2022-09-20T10:11:49.713Z,100019.66
2022-09-20T10:14:34.509Z,100022.34
2022-09-20T10:17:21.271Z,100011.91
2022-09-20T10:20:10.724Z,100023.31
2022-09-20T10:26:08.883Z,100010.13
2022-09-20T10:28:53.262Z,100021.25
2022-09-20T10:31:26.112Z,100012.03
2022-09-20T10:34:11.316Z,100008.38
2022-09-20T10:37:06.746Z,100003.13
2022-09-20T10:39:36.250Z,100007.66
2022-09-20T10:42:46.626Z,100007.88
2022-09-20T10:45:59.227Z,100008.00
2022-09-20T10:48:21.206Z,100001.38
2022-09-20T10:51:00.286Z,100002.56
2022-09-20T10:54:06.175Z,100001.00
2022-09-20T10:56:39.544Z,100000.97
2022-09-20T10:59:12.427Z,100006.84
2022-09-20T11:01:38.873Z,100002.97
2022-09-20T11:04:38.766Z,100004.91
2022-09-20T11:07:17.225Z,100000.19
2022-09-20T11:09:51.200Z,100001.78
2022-09-20T11:12:32.367Z,99985.91
2022-09-20T11:15:05.191Z,100015.28
2022-09-20T11:17:41.462Z,100009.63
2022-09-20T11:20:20.660Z,100010.25
2022-09-20T11:22:52.525Z,100006.34
2022-09-20T11:25:29.341Z,100006.84
2022-09-20T11:28:05.520Z,100004.06
2022-09-20T11:30:38.596Z,100006.19
2022-09-20T11:33:22.470Z,100006.19
2022-09-20T11:35:56.174Z,99995.16
2022-09-20T11:38:25.444Z,99998.59
2022-09-20T11:41:33.105Z,100007.50
2022-09-20T11:44:07.823Z,99999.88
2022-09-20T11:46:52.360Z,99999.72
2022-09-20T11:49:59.355Z,99990.94
2022-09-20T11:53:03.596Z,99977.00
2022-09-20T11:59:23.073Z,99971.97
2022-09-20T12:01:56.797Z,99972.28
2022-09-20T12:04:33.248Z,99972.09
2022-09-20T12:07:18.423Z,99975.53
2022-09-20T12:09:58.337Z,99983.47
2022-09-20T12:12:31.374Z,99979.91
2022-09-20T12:15:01.522Z,99981.84
2022-09-20T12:17:46.236Z,99975.03
2022-09-20T12:20:42.558Z,99975.06
2022-09-20T12:23:43.245Z,99964.50
2022-09-20T12:26:15.636Z,99975.22
2022-09-20T12:28:50.816Z,99961.38
2022-09-20T12:31:26.022Z,99960.41
2022-09-20T12:34:33.603Z,99962.87
2022-09-20T12:37:00.154Z,99952.81
2022-09-20T12:39:37.738Z,99956.53
2022-09-20T12:42:28.223Z,99955.56
2022-09-20T12:45:32.151Z,99960.91
2022-09-20T12:47:58.947Z,99952.31
2022-09-20T12:50:44.060Z,99953.28
2022-09-20T12:53:16.713Z,99956.84
2022-09-20T12:56:12.485Z,99957.16
2022-09-20T12:58:45.294Z,99947.06
2022-09-20T13:01:56.484Z,99955.34
2022-09-20T13:04:51.292Z,99958.00
2022-09-20T13:07:33.407Z,99946.97
2022-09-20T13:10:15.119Z,99945.00
2022-09-20T13:12:43.398Z,99938.69
2022-09-20T13:15:18.675Z,99940.97
2022-09-20T13:17:52.000Z,99939.31
2022-09-20T13:20:23.968Z,99945.00
2022-09-20T13:22:56.015Z,99944.50
2022-09-20T13:25:25.324Z,99945.63
2022-09-20T13:28:09.714Z,99956.06
2022-09-20T13:30:37.087Z,99958.81
2022-09-20T13:33:25.369Z,99961.09
2022-09-20T13:35:58.113Z,99960.28
2022-09-20T13:38:30.081Z,99963.03
2022-09-20T13:41:06.342Z,99955.22
2022-09-20T13:43:36.628Z,99947.75
2022-09-20T13:46:12.295Z,99946.91
2022-09-20T13:48:40.338Z,99956.69
2022-09-20T13:51:23.506Z,99953.41
2022-09-20T13:53:50.206Z,99958.97
2022-09-20T13:56:18.944Z,99951.50
2022-09-20T13:58:45.821Z,99947.75
2022-09-20T14:01:30.487Z,99942.91
2022-09-20T14:04:05.031Z,99950.53
2022-09-20T14:06:32.352Z,99949.22
2022-09-20T14:09:02.611Z,99945.34
2022-09-20T14:11:31.239Z,99943.22
2022-09-20T14:14:02.933Z,99945.19
2022-09-20T14:16:32.861Z,99942.72
2022-09-20T14:19:00.813Z,99950.66
2022-09-20T14:21:31.744Z,99958.88
2022-09-20T14:24:05.686Z,99953.47
2022-09-20T14:26:36.331Z,99950.66
2022-09-20T14:29:31.765Z,99961.56
2022-09-20T14:32:00.791Z,99959.47
2022-09-20T14:34:27.860Z,99958.97
2022-09-20T14:37:05.372Z,99967.06
2022-09-20T14:39:33.487Z,99965.44
2022-09-20T14:42:00.215Z,99966.81
2022-09-20T14:44:33.677Z,99970.69
2022-09-20T14:47:00.402Z,99968.19
2022-09-20T14:49:26.917Z,99968.53
2022-09-20T14:51:54.554Z,99972.97
2022-09-20T14:54:41.306Z,99965.78
2022-09-20T14:57:08.883Z,99962.22
2022-09-20T14:59:39.941Z,99968.19
2022-09-20T15:02:16.052Z,99973.97
2022-09-20T15:04:54.360Z,99976.38
2022-09-20T15:07:21.248Z,99971.75
2022-09-20T15:09:47.950Z,99966.59
2022-09-20T15:12:17.662Z,99973.09
2022-09-20T15:14:44.619Z,99974.22
2022-09-20T15:17:18.029Z,99970.81
2022-09-20T15:19:45.938Z,99974.03
2022-09-20T15:22:12.804Z,99979.25
2022-09-20T15:24:39.986Z,99984.13
2022-09-20T15:27:07.052Z,99985.75
2022-09-20T15:29:33.956Z,99991.25
2022-09-20T15:32:00.629Z,100004.81
2022-09-20T15:34:27.255Z,100004.53
2022-09-20T15:36:54.715Z,100011.38
2022-09-20T15:39:22.376Z,100018.34
2022-09-20T15:41:52.617Z,100017.66
2022-09-20T15:44:19.301Z,100020.72
2022-09-20T15:46:46.611Z,100024.28
2022-09-20T15:49:13.231Z,100022.09
2022-09-20T15:51:39.965Z,100015.94
2022-09-20T15:54:07.746Z,100027.91
2022-09-20T15:56:37.117Z,100028.41
2022-09-20T15:59:06.211Z,100030.81
2022-09-20T16:01:39.772Z,100028.75
2022-09-20T16:04:12.430Z,100033.66
2022-09-20T16:06:40.922Z,100036.87
2022-09-20T16:09:08.419Z,100032.34
2022-09-20T16:11:35.356Z,100036.81
2022-09-20T16:14:02.737Z,100033.91
2022-09-20T16:16:31.903Z,100022.19
2022-09-20T16:19:19.890Z,100026.09
2022-09-20T16:21:52.508Z,100025.69
2022-09-20T16:24:31.828Z,100018.06
2022-09-20T16:26:59.281Z,100026.41
2022-09-20T16:29:26.110Z,100019.97
2022-09-20T16:31:54.542Z,100021.62
2022-09-20T16:34:24.280Z,100023.16
2022-09-20T16:36:53.852Z,100024.56
2022-09-20T16:39:26.222Z,100025.84
2022-09-20T16:41:53.084Z,100022.72
2022-09-20T16:44:19.680Z,100033.69
2022-09-20T16:46:47.265Z,100029.63
2022-09-20T16:49:14.186Z,100027.78
2022-09-20T16:51:42.942Z,100033.09
2022-09-20T16:54:12.601Z,100035.91
2022-09-20T16:56:49.176Z,100037.88
2022-09-20T16:59:18.639Z,100041.03
2022-09-20T17:01:45.537Z,100036.87
2022-09-20T17:04:14.386Z,100034.72
2022-09-20T17:06:43.413Z,100041.63
2022-09-20T17:09:11.137Z,100031.56
2022-09-20T17:11:40.628Z,100038.81
2022-09-20T17:14:09.162Z,100033.13
2022-09-20T17:16:38.253Z,100031.44
2022-09-20T17:19:07.445Z,100038.94
2022-09-20T17:21:36.055Z,100035.69
2022-09-20T17:24:04.165Z,100035.00
2022-09-20T17:26:36.696Z,100056.47
2022-09-20T17:29:06.637Z,100053.66
2022-09-20T17:31:38.226Z,100059.94
2022-09-20T17:34:07.715Z,100047.28
2022-09-20T17:36:39.654Z,100054.19
2022-09-20T17:39:10.885Z,100056.16
2022-09-20T17:41:38.236Z,100052.38
2022-09-20T17:44:09.848Z,100054.41
2022-09-20T17:46:38.467Z,100058.00
2022-09-20T17:49:08.707Z,100069.69
2022-09-20T17:51:40.309Z,100070.03
2022-09-20T17:54:08.583Z,100070.13
2022-09-20T17:56:37.523Z,100062.91
2022-09-20T17:59:05.927Z,100072.22
2022-09-20T18:01:34.534Z,100079.97
2022-09-20T18:04:02.389Z,100088.34
2022-09-20T18:06:50.064Z,100082.13
2022-09-20T18:09:18.925Z,100088.69
2022-09-20T18:11:53.220Z,100087.25
2022-09-20T18:14:23.271Z,100095.63
2022-09-20T18:16:55.476Z,100096.19
2022-09-20T18:19:22.901Z,100098.00
2022-09-20T18:21:50.035Z,100103.66
2022-09-20T18:24:16.756Z,100109.75
2022-09-20T18:26:44.516Z,100101.28
2022-09-20T18:29:17.980Z,100107.12
2022-09-20T18:31:56.804Z,100106.88
2022-09-20T18:34:26.795Z,100109.50
2022-09-20T18:36:55.536Z,100112.41
2022-09-20T18:39:31.021Z,100114.00
2022-09-20T18:41:57.576Z,100113.06
2022-09-20T18:44:24.239Z,100126.94
2022-09-20T18:46:54.204Z,100122.88
2022-09-20T18:49:21.657Z,100119.53
2022-09-20T18:51:49.298Z,100123.16
2022-09-20T18:54:16.746Z,100126.41
2022-09-20T18:56:45.369Z,100121.72
2022-09-20T18:59:25.387Z,100122.53
2022-09-20T19:01:55.182Z,100122.06
2022-09-20T19:04:43.891Z,100120.66
2022-09-20T19:07:29.874Z,100123.56
2022-09-20T19:10:08.856Z,100132.78
2022-09-20T19:12:54.348Z,100131.53
2022-09-20T19:18:35.678Z,100108.09
2022-09-20T19:21:35.457Z,100113.50
2022-09-20T19:24:21.724Z,100108.81
2022-09-20T19:26:48.877Z,100112.59
2022-09-20T19:29:33.786Z,100120.56
2022-09-20T19:32:00.926Z,100127.38
2022-09-20T19:34:35.292Z,100129.44
2022-09-20T19:50:42.205Z,100125.94
2022-09-20T19:53:09.736Z,100124.03
2022-09-20T19:55:36.993Z,100131.13
2022-09-20T20:00:39.536Z,100135.91
2022-09-20T20:03:06.699Z,100143.59
2022-09-20T20:05:33.669Z,100145.59
2022-09-20T20:08:12.649Z,100145.84
2022-09-20T20:10:52.371Z,100153.75
2022-09-20T20:14:00.384Z,100152.44
2022-09-20T20:16:59.873Z,100151.63
2022-09-20T20:19:44.368Z,100154.75
2022-09-20T20:22:45.837Z,100150.38
2022-09-20T20:29:26.385Z,100156.94
2022-09-20T20:31:52.975Z,100152.47
2022-09-20T20:34:20.621Z,100156.56
2022-09-20T20:36:47.383Z,100151.66
2022-09-20T20:39:14.930Z,100156.25
2022-09-20T20:41:41.768Z,100154.63
2022-09-20T20:44:08.362Z,100166.22
2022-09-20T20:46:36.112Z,100159.75
2022-09-20T20:49:03.692Z,100161.69
2022-09-20T20:51:32.927Z,100165.87
2022-09-20T20:53:59.901Z,100173.34
2022-09-20T20:56:29.779Z,100179.06
2022-09-20T21:32:36.906Z,100192.47
2022-09-20T21:35:03.648Z,100190.38
2022-09-20T21:37:30.551Z,100180.75
2022-09-20T21:39:57.104Z,100183.16
2022-09-20T21:42:25.478Z,100185.94
2022-09-20T21:44:53.015Z,100186.47
2022-09-20T21:47:20.638Z,100188.16
2022-09-20T22:18:37.642Z,100210.53
2022-09-20T22:21:06.824Z,100204.47
2022-09-20T22:23:46.976Z,100204.66
2022-09-20T22:26:16.815Z,100207.88
2022-09-20T22:28:43.849Z,100206.09
2022-09-20T22:31:16.105Z,100206.03
2022-09-20T22:33:48.280Z,100208.03
2022-09-20T22:36:16.737Z,100206.84
2022-09-20T22:42:46.327Z,100212.75
2022-09-20T22:45:12.953Z,100206.22
2022-09-20T22:47:39.478Z,100208.31
2022-09-20T22:50:06.998Z,100201.81
2022-09-20T22:52:33.592Z,100206.66
2022-09-20T22:55:00.120Z,100203.66
2022-09-20T22:57:51.859Z,100205.28
2022-09-20T23:00:18.394Z,100208.81
2022-09-20T23:02:44.954Z,100201.75
2022-09-20T23:05:11.493Z,100202.87
2022-09-20T23:07:38.041Z,100204.31
2022-09-20T23:10:05.537Z,100200.44
2022-09-20T23:13:03.364Z,100200.88
2022-09-20T23:19:12.033Z,100206.59
2022-09-20T23:21:40.234Z,100211.81
2022-09-20T23:24:09.766Z,100211.22
2022-09-20T23:26:37.916Z,100210.75
2022-09-20T23:29:10.994Z,100209.59
2022-09-20T23:31:59.461Z,100212.06
2022-09-20T23:34:25.971Z,100206.59
2022-09-20T23:36:52.892Z,100202.28
2022-09-20T23:39:19.438Z,100208.84
2022-09-20T23:41:50.603Z,100216.44
2022-09-20T23:44:17.922Z,100208.34
2022-09-20T23:46:44.523Z,100214.16
2022-09-20T23:53:03.033Z,100213.91
2022-09-20T23:55:29.737Z,100217.63
2022-09-20T23:57:59.629Z,100214.63
